sensor_id;sensor_type;location;lat;lon;timestamp;pressure;altitude;pressure_sealevel;temperature;humidity
11712;BME280;5912;51.034;6.984;2024-02-23T00:01:53;56660.81;;;-142.13;54.61
11712;BME280;5912;51.034;6.984;2024-02-23T00:04:19;56676.84;;;-142.13;55.00
11712;BME280;5912;51.034;6.984;2024-02-23T00:06:45;56652.81;;;-142.13;55.06
11712;BME280;5912;51.034;6.984;2024-02-23T00:09:11;56676.84;;;-142.13;55.11
11712;BME280;5912;51.034;6.984;2024-02-23T00:11:40;56648.81;;;-142.13;55.80
11712;BME280;5912;51.034;6.984;2024-02-23T00:14:12;56654.81;;;-142.13;55.56
11712;BME280;5912;51.034;6.984;2024-02-23T00:16:41;56640.78;;;-142.13;55.96
11712;BME280;5912;51.034;6.984;2024-02-23T00:19:10;56660.81;;;-142.13;56.18
11712;BME280;5912;51.034;6.984;2024-02-23T00:21:36;56676.84;;;-142.13;56.51
11712;BME280;5912;51.034;6.984;2024-02-23T00:24:02;56674.84;;;-142.13;57.03
11712;BME280;5912;51.034;6.984;2024-02-23T00:26:28;56648.81;;;-142.13;56.34
11712;BME280;5912;51.034;6.984;2024-02-23T00:28:57;56654.81;;;-142.13;57.10
11712;BME280;5912;51.034;6.984;2024-02-23T00:31:22;56664.84;;;-142.13;57.52
11712;BME280;5912;51.034;6.984;2024-02-23T00:33:48;56656.81;;;-142.13;57.37
11712;BME280;5912;51.034;6.984;2024-02-23T00:36:14;56652.81;;;-142.13;57.83
11712;BME280;5912;51.034;6.984;2024-02-23T00:38:39;56682.88;;;-142.13;58.13
11712;BME280;5912;51.034;6.984;2024-02-23T00:41:05;56648.81;;;-142.13;58.90
11712;BME280;5912;51.034;6.984;2024-02-23T00:43:38;56714.91;;;-142.13;59.28
11712;BME280;5912;51.034;6.984;2024-02-23T00:46:03;56640.78;;;-142.13;58.90
11712;BME280;5912;51.034;6.984;2024-02-23T00:48:29;56710.91;;;-142.13;59.00
11712;BME280;5912;51.034;6.984;2024-02-23T00:50:55;56684.88;;;-142.13;59.62
11712;BME280;5912;51.034;6.984;2024-02-23T00:53:20;56672.84;;;-142.13;60.04
11712;BME280;5912;51.034;6.984;2024-02-23T00:55:47;56672.84;;;-142.13;60.24
11712;BME280;5912;51.034;6.984;2024-02-23T00:58:12;56674.84;;;-142.13;60.63
11712;BME280;5912;51.034;6.984;2024-02-23T01:00:38;56845.13;;;-142.13;60.37
11712;BME280;5912;51.034;6.984;2024-02-23T01:03:04;56708.91;;;-142.13;61.08
11712;BME280;5912;51.034;6.984;2024-02-23T01:05:29;56696.88;;;-142.13;61.34
11712;BME280;5912;51.034;6.984;2024-02-23T01:07:55;56670.84;;;-142.13;61.29
11712;BME280;5912;51.034;6.984;2024-02-23T01:10:20;56692.88;;;-142.13;61.50
11712;BME280;5912;51.034;6.984;2024-02-23T01:12:46;56668.84;;;-142.13;61.99
11712;BME280;5912;51.034;6.984;2024-02-23T01:15:11;56684.88;;;-142.13;61.53
11712;BME280;5912;51.034;6.984;2024-02-23T01:17:37;56678.84;;;-142.13;61.53
11712;BME280;5912;51.034;6.984;2024-02-23T01:20:03;56678.84;;;-142.13;60.95
11712;BME280;5912;51.034;6.984;2024-02-23T01:22:29;56686.88;;;-142.13;61.00
11712;BME280;5912;51.034;6.984;2024-02-23T01:24:54;56700.91;;;-142.13;60.67
11712;BME280;5912;51.034;6.984;2024-02-23T01:27:20;56704.91;;;-142.13;60.65
11712;BME280;5912;51.034;6.984;2024-02-23T01:29:45;56700.91;;;-142.13;60.50
11712;BME280;5912;51.034;6.984;2024-02-23T01:32:11;56720.94;;;-142.13;60.80
11712;BME280;5912;51.034;6.984;2024-02-23T01:34:36;56694.88;;;-142.13;60.45
11712;BME280;5912;51.034;6.984;2024-02-23T01:37:24;56698.88;;;-142.13;60.14
11712;BME280;5912;51.034;6.984;2024-02-23T01:39:49;56696.88;;;-142.13;59.90
11712;BME280;5912;51.034;6.984;2024-02-23T01:42:15;56676.84;;;-142.13;59.71
11712;BME280;5912;51.034;6.984;2024-02-23T01:44:40;56684.88;;;-142.13;59.95
11712;BME280;5912;51.034;6.984;2024-02-23T01:47:06;56660.81;;;-142.13;59.76
11712;BME280;5912;51.034;6.984;2024-02-23T01:49:32;56698.88;;;-142.13;59.61
11712;BME280;5912;51.034;6.984;2024-02-23T01:52:00;56674.84;;;-142.13;59.45
11712;BME280;5912;51.034;6.984;2024-02-23T01:54:26;56686.88;;;-142.13;59.40
11712;BME280;5912;51.034;6.984;2024-02-23T01:56:53;56682.88;;;-142.13;60.34
11712;BME280;5912;51.034;6.984;2024-02-23T01:59:19;56696.88;;;-142.13;60.64
11712;BME280;5912;51.034;6.984;2024-02-23T02:01:45;56700.91;;;-142.13;60.85
11712;BME280;5912;51.034;6.984;2024-02-23T02:04:11;56658.81;;;-142.13;60.90
11712;BME280;5912;51.034;6.984;2024-02-23T02:06:36;56704.91;;;-142.13;60.69
11712;BME280;5912;51.034;6.984;2024-02-23T02:09:02;56708.91;;;-142.13;60.91
11712;BME280;5912;51.034;6.984;2024-02-23T02:11:28;56694.88;;;-142.13;60.94
11712;BME280;5912;51.034;6.984;2024-02-23T02:13:53;56708.91;;;-142.13;61.05
11712;BME280;5912;51.034;6.984;2024-02-23T02:16:19;56666.84;;;-142.13;61.27
11712;BME280;5912;51.034;6.984;2024-02-23T02:18:44;56720.94;;;-142.13;61.14
11712;BME280;5912;51.034;6.984;2024-02-23T02:21:11;56678.84;;;-142.13;60.63
11712;BME280;5912;51.034;6.984;2024-02-23T02:23:37;56690.88;;;-142.13;60.82
11712;BME280;5912;51.034;6.984;2024-02-23T02:26:03;56724.94;;;-142.13;61.03
11712;BME280;5912;51.034;6.984;2024-02-23T02:28:29;56680.84;;;-142.13;60.83
11712;BME280;5912;51.034;6.984;2024-02-23T02:30:54;56672.84;;;-142.13;60.33
11712;BME280;5912;51.034;6.984;2024-02-23T02:33:20;56686.88;;;-142.13;60.73
11712;BME280;5912;51.034;6.984;2024-02-23T02:35:46;56712.91;;;-142.13;60.37
11712;BME280;5912;51.034;6.984;2024-02-23T02:38:11;56660.81;;;-142.13;60.94
11712;BME280;5912;51.034;6.984;2024-02-23T02:40:37;56728.94;;;-142.13;60.61
11712;BME280;5912;51.034;6.984;2024-02-23T02:43:03;56698.88;;;-142.13;60.28
11712;BME280;5912;51.034;6.984;2024-02-23T02:45:29;56688.88;;;-142.13;60.15
11712;BME280;5912;51.034;6.984;2024-02-23T02:47:54;56710.91;;;-142.13;60.19
11712;BME280;5912;51.034;6.984;2024-02-23T02:50:21;56702.91;;;-142.13;59.72
11712;BME280;5912;51.034;6.984;2024-02-23T02:52:47;56694.88;;;-142.13;59.59
11712;BME280;5912;51.034;6.984;2024-02-23T02:55:13;56720.94;;;-142.13;59.60
11712;BME280;5912;51.034;6.984;2024-02-23T02:57:38;56672.84;;;-142.13;59.83
11712;BME280;5912;51.034;6.984;2024-02-23T03:00:05;56704.91;;;-142.13;59.97
11712;BME280;5912;51.034;6.984;2024-02-23T03:02:31;56700.91;;;-142.13;59.47
11712;BME280;5912;51.034;6.984;2024-02-23T03:04:57;56700.91;;;-142.13;59.57
11712;BME280;5912;51.034;6.984;2024-02-23T03:07:22;56672.84;;;-142.13;59.70
11712;BME280;5912;51.034;6.984;2024-02-23T03:09:48;56688.88;;;-142.13;58.95
11712;BME280;5912;51.034;6.984;2024-02-23T03:12:16;56688.88;;;-142.13;59.28
11712;BME280;5912;51.034;6.984;2024-02-23T03:14:41;56708.91;;;-142.13;59.08
11712;BME280;5912;51.034;6.984;2024-02-23T03:17:08;56692.88;;;-142.13;58.70
11712;BME280;5912;51.034;6.984;2024-02-23T03:19:35;56724.94;;;-142.13;58.52
11712;BME280;5912;51.034;6.984;2024-02-23T03:22:00;56712.91;;;-142.13;58.30
11712;BME280;5912;51.034;6.984;2024-02-23T03:24:26;56720.94;;;-142.13;58.00
11712;BME280;5912;51.034;6.984;2024-02-23T03:26:52;56696.88;;;-142.13;57.58
11712;BME280;5912;51.034;6.984;2024-02-23T03:29:17;56700.91;;;-142.13;57.57
11712;BME280;5912;51.034;6.984;2024-02-23T03:31:43;56694.88;;;-142.13;57.67
11712;BME280;5912;51.034;6.984;2024-02-23T03:34:09;56648.81;;;-142.13;57.21
11712;BME280;5912;51.034;6.984;2024-02-23T03:36:36;56660.81;;;-142.13;57.46
11712;BME280;5912;51.034;6.984;2024-02-23T03:39:02;56672.84;;;-142.13;57.38
11712;BME280;5912;51.034;6.984;2024-02-23T03:41:28;56670.84;;;-142.13;57.34
11712;BME280;5912;51.034;6.984;2024-02-23T03:43:53;56684.88;;;-142.13;57.35
11712;BME280;5912;51.034;6.984;2024-02-23T03:46:50;56712.91;;;-142.13;57.26
11712;BME280;5912;51.034;6.984;2024-02-23T03:49:16;56674.84;;;-142.13;56.51
11712;BME280;5912;51.034;6.984;2024-02-23T03:51:41;56732.94;;;-142.13;56.46
11712;BME280;5912;51.034;6.984;2024-02-23T03:54:07;56684.88;;;-142.13;56.63
11712;BME280;5912;51.034;6.984;2024-02-23T03:56:42;56724.94;;;-142.13;56.74
11712;BME280;5912;51.034;6.984;2024-02-23T03:59:08;56682.88;;;-142.13;56.65
11712;BME280;5912;51.034;6.984;2024-02-23T04:01:38;56696.88;;;-142.13;56.72
11712;BME280;5912;51.034;6.984;2024-02-23T04:04:05;56684.88;;;-142.13;56.43
11712;BME280;5912;51.034;6.984;2024-02-23T04:06:31;56684.88;;;-142.13;56.29
11712;BME280;5912;51.034;6.984;2024-02-23T04:08:57;56678.84;;;-142.13;55.72
11712;BME280;5912;51.034;6.984;2024-02-23T04:11:23;56696.88;;;-142.13;55.88
11712;BME280;5912;51.034;6.984;2024-02-23T04:13:48;56680.84;;;-142.13;55.29
11712;BME280;5912;51.034;6.984;2024-02-23T04:16:14;56676.84;;;-142.13;55.11
11712;BME280;5912;51.034;6.984;2024-02-23T04:18:40;56704.91;;;-142.13;54.63
11712;BME280;5912;51.034;6.984;2024-02-23T04:21:06;56676.84;;;-142.13;55.01
11712;BME280;5912;51.034;6.984;2024-02-23T04:23:31;56698.88;;;-142.13;54.35
11712;BME280;5912;51.034;6.984;2024-02-23T04:26:23;56672.84;;;-142.13;54.22
11712;BME280;5912;51.034;6.984;2024-02-23T04:28:48;56688.88;;;-142.13;54.54
11712;BME280;5912;51.034;6.984;2024-02-23T04:31:14;56684.88;;;-142.13;54.22
11712;BME280;5912;51.034;6.984;2024-02-23T04:33:39;56688.88;;;-142.13;54.27
11712;BME280;5912;51.034;6.984;2024-02-23T04:36:05;56694.88;;;-142.13;54.16
11712;BME280;5912;51.034;6.984;2024-02-23T04:38:32;56700.91;;;-142.13;53.66
11712;BME280;5912;51.034;6.984;2024-02-23T04:40:57;56670.84;;;-142.13;53.75
11712;BME280;5912;51.034;6.984;2024-02-23T04:43:24;56664.84;;;-142.13;54.44
11712;BME280;5912;51.034;6.984;2024-02-23T04:45:51;56676.84;;;-142.13;54.20
11712;BME280;5912;51.034;6.984;2024-02-23T04:48:16;56672.84;;;-142.13;53.51
11712;BME280;5912;51.034;6.984;2024-02-23T04:50:42;56652.81;;;-142.13;54.04
11712;BME280;5912;51.034;6.984;2024-02-23T04:53:07;56666.84;;;-142.13;53.89
11712;BME280;5912;51.034;6.984;2024-02-23T04:55:33;56696.88;;;-142.13;54.18
11712;BME280;5912;51.034;6.984;2024-02-23T04:57:58;56646.81;;;-142.13;54.68
11712;BME280;5912;51.034;6.984;2024-02-23T05:00:24;56688.88;;;-142.13;54.54
11712;BME280;5912;51.034;6.984;2024-02-23T05:02:53;56684.88;;;-142.13;55.09
11712;BME280;5912;51.034;6.984;2024-02-23T05:05:19;56688.88;;;-142.13;56.39
11712;BME280;5912;51.034;6.984;2024-02-23T05:07:47;56644.81;;;-142.13;54.91
11712;BME280;5912;51.034;6.984;2024-02-23T05:10:12;56668.84;;;-142.13;55.19
11712;BME280;5912;51.034;6.984;2024-02-23T05:12:38;56704.91;;;-142.13;55.18
11712;BME280;5912;51.034;6.984;2024-02-23T05:15:04;56672.84;;;-142.13;55.99
11712;BME280;5912;51.034;6.984;2024-02-23T05:17:29;56684.88;;;-142.13;55.54
11712;BME280;5912;51.034;6.984;2024-02-23T05:19:55;56652.81;;;-142.13;55.82
11712;BME280;5912;51.034;6.984;2024-02-23T05:22:20;56692.88;;;-142.13;55.60
11712;BME280;5912;51.034;6.984;2024-02-23T05:24:45;56708.91;;;-142.13;55.25
11712;BME280;5912;51.034;6.984;2024-02-23T05:27:11;56654.81;;;-142.13;55.09
11712;BME280;5912;51.034;6.984;2024-02-23T05:29:36;56676.84;;;-142.13;55.27
11712;BME280;5912;51.034;6.984;2024-02-23T05:32:02;56704.91;;;-142.13;54.72
11712;BME280;5912;51.034;6.984;2024-02-23T05:34:28;56674.84;;;-142.13;54.63
11712;BME280;5912;51.034;6.984;2024-02-23T05:36:53;56664.84;;;-142.13;55.43
11712;BME280;5912;51.034;6.984;2024-02-23T05:39:19;56662.81;;;-142.13;55.31
11712;BME280;5912;51.034;6.984;2024-02-23T05:44:53;56690.88;;;-142.13;54.27
11712;BME280;5912;51.034;6.984;2024-02-23T05:47:19;56680.84;;;-142.13;54.38
11712;BME280;5912;51.034;6.984;2024-02-23T05:49:46;56660.81;;;-142.13;54.56
11712;BME280;5912;51.034;6.984;2024-02-23T05:52:11;56708.91;;;-142.13;54.35
11712;BME280;5912;51.034;6.984;2024-02-23T05:54:37;56704.91;;;-142.13;54.56
11712;BME280;5912;51.034;6.984;2024-02-23T05:57:03;56684.88;;;-142.13;54.92
11712;BME280;5912;51.034;6.984;2024-02-23T05:59:28;56670.84;;;-142.13;55.03
11712;BME280;5912;51.034;6.984;2024-02-23T06:05:16;56694.88;;;-142.13;55.39
11712;BME280;5912;51.034;6.984;2024-02-23T06:07:41;56668.84;;;-142.13;55.25
11712;BME280;5912;51.034;6.984;2024-02-23T06:10:25;56712.91;;;-142.13;55.67
11712;BME280;5912;51.034;6.984;2024-02-23T06:12:50;56674.84;;;-142.13;55.26
11712;BME280;5912;51.034;6.984;2024-02-23T06:15:16;56692.88;;;-142.13;56.03
11712;BME280;5912;51.034;6.984;2024-02-23T06:17:41;56680.84;;;-142.13;55.24
11712;BME280;5912;51.034;6.984;2024-02-23T06:20:07;56676.84;;;-142.13;55.33
11712;BME280;5912;51.034;6.984;2024-02-23T06:22:33;56640.78;;;-142.13;56.14
11712;BME280;5912;51.034;6.984;2024-02-23T06:24:59;56678.84;;;-142.13;55.97
11712;BME280;5912;51.034;6.984;2024-02-23T06:27:24;56690.88;;;-142.13;55.46
11712;BME280;5912;51.034;6.984;2024-02-23T06:29:51;56654.81;;;-142.13;55.29
11712;BME280;5912;51.034;6.984;2024-02-23T06:32:51;56660.81;;;-142.13;56.00
11712;BME280;5912;51.034;6.984;2024-02-23T06:35:16;56666.84;;;-142.13;55.06
11712;BME280;5912;51.034;6.984;2024-02-23T06:37:42;56658.81;;;-142.13;55.87
11712;BME280;5912;51.034;6.984;2024-02-23T06:40:08;56676.84;;;-142.13;56.34
11712;BME280;5912;51.034;6.984;2024-02-23T06:42:33;56680.84;;;-142.13;56.53
11712;BME280;5912;51.034;6.984;2024-02-23T06:44:59;56678.84;;;-142.13;56.05
11712;BME280;5912;51.034;6.984;2024-02-23T06:47:24;56680.84;;;-142.13;56.15
11712;BME280;5912;51.034;6.984;2024-02-23T06:49:50;56678.84;;;-142.13;56.10
11712;BME280;5912;51.034;6.984;2024-02-23T06:52:16;56706.91;;;-142.13;56.73
11712;BME280;5912;51.034;6.984;2024-02-23T06:54:41;56670.84;;;-142.13;56.20
11712;BME280;5912;51.034;6.984;2024-02-23T06:57:07;56692.88;;;-142.13;56.82
11712;BME280;5912;51.034;6.984;2024-02-23T06:59:32;56692.88;;;-142.13;56.79
11712;BME280;5912;51.034;6.984;2024-02-23T07:01:58;56654.81;;;-142.13;57.08
11712;BME280;5912;51.034;6.984;2024-02-23T07:04:23;56692.88;;;-142.13;57.55
11712;BME280;5912;51.034;6.984;2024-02-23T07:06:50;56680.84;;;-142.13;57.22
11712;BME280;5912;51.034;6.984;2024-02-23T07:09:16;56676.84;;;-142.13;56.69
11712;BME280;5912;51.034;6.984;2024-02-23T07:11:41;56674.84;;;-142.13;57.06
11712;BME280;5912;51.034;6.984;2024-02-23T07:14:09;56648.81;;;-142.13;57.03
11712;BME280;5912;51.034;6.984;2024-02-23T07:16:38;56680.84;;;-142.13;57.08
11712;BME280;5912;51.034;6.984;2024-02-23T07:19:07;56688.88;;;-142.13;57.60
11712;BME280;5912;51.034;6.984;2024-02-23T07:21:33;56702.91;;;-142.13;57.72
11712;BME280;5912;51.034;6.984;2024-02-23T07:23:59;56676.84;;;-142.13;57.22
11712;BME280;5912;51.034;6.984;2024-02-23T07:26:25;56682.88;;;-142.13;57.79
11712;BME280;5912;51.034;6.984;2024-02-23T07:28:53;56686.88;;;-142.13;58.02
11712;BME280;5912;51.034;6.984;2024-02-23T07:31:19;56688.88;;;-142.13;58.17
11712;BME280;5912;51.034;6.984;2024-02-23T07:33:45;56682.88;;;-142.13;58.25
11712;BME280;5912;51.034;6.984;2024-02-23T07:36:14;56682.88;;;-142.13;58.57
11712;BME280;5912;51.034;6.984;2024-02-23T07:38:40;56680.84;;;-142.13;59.25
11712;BME280;5912;51.034;6.984;2024-02-23T07:41:06;56686.88;;;-142.13;59.15
11712;BME280;5912;51.034;6.984;2024-02-23T07:43:32;56688.88;;;-142.13;59.68
11712;BME280;5912;51.034;6.984;2024-02-23T07:45:58;56716.91;;;-142.13;59.87
11712;BME280;5912;51.034;6.984;2024-02-23T07:48:23;56712.91;;;-142.13;60.31
11712;BME280;5912;51.034;6.984;2024-02-23T07:50:49;56704.91;;;-142.13;60.23
11712;BME280;5912;51.034;6.984;2024-02-23T07:53:15;56656.81;;;-142.13;60.30
11712;BME280;5912;51.034;6.984;2024-02-23T07:55:40;56670.84;;;-142.13;59.97
11712;BME280;5912;51.034;6.984;2024-02-23T07:58:06;56724.94;;;-142.13;60.49
11712;BME280;5912;51.034;6.984;2024-02-23T08:00:32;56704.91;;;-142.13;59.59
11712;BME280;5912;51.034;6.984;2024-02-23T08:02:59;56674.84;;;-142.13;59.09
11712;BME280;5912;51.034;6.984;2024-02-23T08:05:25;56672.84;;;-142.13;58.00
11712;BME280;5912;51.034;6.984;2024-02-23T08:07:51;56664.84;;;-142.13;55.94
11712;BME280;5912;51.034;6.984;2024-02-23T08:10:17;56658.81;;;-142.13;55.04
11712;BME280;5912;51.034;6.984;2024-02-23T08:12:42;56662.81;;;-142.13;54.46
11712;BME280;5912;51.034;6.984;2024-02-23T08:15:08;56660.81;;;-142.13;54.29
11712;BME280;5912;51.034;6.984;2024-02-23T08:17:34;56640.78;;;-142.13;53.25
11712;BME280;5912;51.034;6.984;2024-02-23T08:20:00;56656.81;;;-142.13;52.87
11712;BME280;5912;51.034;6.984;2024-02-23T08:25:47;56650.81;;;-142.13;50.38
11712;BME280;5912;51.034;6.984;2024-02-23T08:28:13;56664.84;;;-142.13;48.85
11712;BME280;5912;51.034;6.984;2024-02-23T08:30:38;56680.84;;;-142.13;49.94
11712;BME280;5912;51.034;6.984;2024-02-23T08:33:04;56620.75;;;-142.13;49.69
11712;BME280;5912;51.034;6.984;2024-02-23T08:35:30;56612.75;;;-142.13;49.15
11712;BME280;5912;51.034;6.984;2024-02-23T08:37:56;56630.78;;;-142.13;48.08
11712;BME280;5912;51.034;6.984;2024-02-23T08:40:21;56636.78;;;-142.13;47.35
11712;BME280;5912;51.034;6.984;2024-02-23T08:42:47;56620.75;;;-142.13;46.03
11712;BME280;5912;51.034;6.984;2024-02-23T08:45:12;56584.69;;;-142.13;45.50
11712;BME280;5912;51.034;6.984;2024-02-23T08:47:39;56604.72;;;-142.13;45.29
11712;BME280;5912;51.034;6.984;2024-02-23T08:50:05;56568.66;;;-142.13;44.55
11712;BME280;5912;51.034;6.984;2024-02-23T08:52:31;56580.69;;;-142.13;43.99
11712;BME280;5912;51.034;6.984;2024-02-23T08:54:57;56580.69;;;-142.13;43.72
11712;BME280;5912;51.034;6.984;2024-02-23T08:57:22;56590.72;;;-142.13;43.89
11712;BME280;5912;51.034;6.984;2024-02-23T08:59:49;56576.69;;;-142.13;43.70
11712;BME280;5912;51.034;6.984;2024-02-23T09:02:14;56598.72;;;-142.13;43.84
11712;BME280;5912;51.034;6.984;2024-02-23T09:04:40;56606.75;;;-142.13;44.17
11712;BME280;5912;51.034;6.984;2024-02-23T09:07:06;56598.72;;;-142.13;44.67
11712;BME280;5912;51.034;6.984;2024-02-23T09:09:31;56580.69;;;-142.13;45.02
11712;BME280;5912;51.034;6.984;2024-02-23T09:11:57;56600.72;;;-142.13;45.36
11712;BME280;5912;51.034;6.984;2024-02-23T09:14:22;56596.72;;;-142.13;45.27
11712;BME280;5912;51.034;6.984;2024-02-23T09:16:48;56580.69;;;-142.13;44.82
11712;BME280;5912;51.034;6.984;2024-02-23T09:19:19;56594.72;;;-142.13;44.97
11712;BME280;5912;51.034;6.984;2024-02-23T09:21:45;56574.69;;;-142.13;45.20
11712;BME280;5912;51.034;6.984;2024-02-23T09:24:10;56588.69;;;-142.13;45.00
11712;BME280;5912;51.034;6.984;2024-02-23T09:26:36;56576.69;;;-142.13;44.21
11712;BME280;5912;51.034;6.984;2024-02-23T09:29:01;56566.66;;;-142.13;43.91
11712;BME280;5912;51.034;6.984;2024-02-23T09:31:27;56560.66;;;-142.13;44.16
11712;BME280;5912;51.034;6.984;2024-02-23T09:33:56;56584.69;;;-142.13;44.19
11712;BME280;5912;51.034;6.984;2024-02-23T09:36:22;56580.69;;;-142.13;44.05
11712;BME280;5912;51.034;6.984;2024-02-23T09:38:47;56588.69;;;-142.13;44.22
11712;BME280;5912;51.034;6.984;2024-02-23T09:41:23;56566.66;;;-142.13;44.30
11712;BME280;5912;51.034;6.984;2024-02-23T09:43:49;56562.66;;;-142.13;43.70
11712;BME280;5912;51.034;6.984;2024-02-23T09:46:16;56604.72;;;-142.13;44.23
11712;BME280;5912;51.034;6.984;2024-02-23T09:48:43;56556.66;;;-142.13;44.32
11712;BME280;5912;51.034;6.984;2024-02-23T09:51:10;56544.63;;;-142.13;43.74
11712;BME280;5912;51.034;6.984;2024-02-23T09:53:37;56520.59;;;-142.13;40.11
11712;BME280;5912;51.034;6.984;2024-02-23T09:56:04;56532.63;;;-142.13;40.29
11712;BME280;5912;51.034;6.984;2024-02-23T09:58:32;56508.56;;;-142.13;39.06
11712;BME280;5912;51.034;6.984;2024-02-23T10:00:58;56488.53;;;-142.13;39.10
11712;BME280;5912;51.034;6.984;2024-02-23T10:03:27;56480.53;;;-142.13;38.95
11712;BME280;5912;51.034;6.984;2024-02-23T10:05:54;56516.59;;;-142.13;39.29
11712;BME280;5912;51.034;6.984;2024-02-23T10:08:20;56510.56;;;-142.13;38.95
11712;BME280;5912;51.034;6.984;2024-02-23T10:10:46;56548.63;;;-142.13;40.04
11712;BME280;5912;51.034;6.984;2024-02-23T10:13:31;56550.63;;;-142.13;40.70
11712;BME280;5912;51.034;6.984;2024-02-23T10:15:56;56562.66;;;-142.13;41.16
11712;BME280;5912;51.034;6.984;2024-02-23T10:18:22;56552.66;;;-142.13;41.92
11712;BME280;5912;51.034;6.984;2024-02-23T10:20:48;56566.66;;;-142.13;41.43
11712;BME280;5912;51.034;6.984;2024-02-23T10:23:15;56576.69;;;-142.13;41.95
11712;BME280;5912;51.034;6.984;2024-02-23T10:25:41;56500.56;;;-142.13;42.11
11712;BME280;5912;51.034;6.984;2024-02-23T10:28:06;56580.69;;;-142.13;41.89
11712;BME280;5912;51.034;6.984;2024-02-23T10:30:33;56582.69;;;-142.13;41.41
11712;BME280;5912;51.034;6.984;2024-02-23T10:32:59;56576.69;;;-142.13;41.64
11712;BME280;5912;51.034;6.984;2024-02-23T10:35:25;56566.66;;;-142.13;40.91
11712;BME280;5912;51.034;6.984;2024-02-23T10:37:52;56552.66;;;-142.13;40.38
11712;BME280;5912;51.034;6.984;2024-02-23T10:40:19;56556.66;;;-142.13;40.78
11712;BME280;5912;51.034;6.984;2024-02-23T10:42:48;56548.63;;;-142.13;40.89
11712;BME280;5912;51.034;6.984;2024-02-23T10:45:20;56554.66;;;-142.13;41.05
11712;BME280;5912;51.034;6.984;2024-02-23T10:47:47;56546.63;;;-142.13;41.74
11712;BME280;5912;51.034;6.984;2024-02-23T10:50:14;56548.63;;;-142.13;41.87
11712;BME280;5912;51.034;6.984;2024-02-23T10:52:43;56592.72;;;-142.13;41.63
11712;BME280;5912;51.034;6.984;2024-02-23T10:55:09;56552.66;;;-142.13;42.20
11712;BME280;5912;51.034;6.984;2024-02-23T10:57:35;56574.69;;;-142.13;42.28
11712;BME280;5912;51.034;6.984;2024-02-23T11:00:02;56544.63;;;-142.13;42.33
11712;BME280;5912;51.034;6.984;2024-02-23T11:02:40;56544.63;;;-142.13;42.07
11712;BME280;5912;51.034;6.984;2024-02-23T11:05:06;56562.66;;;-142.13;42.20
11712;BME280;5912;51.034;6.984;2024-02-23T11:07:38;56566.66;;;-142.13;41.93
11712;BME280;5912;51.034;6.984;2024-02-23T11:10:05;56544.63;;;-142.13;42.31
11712;BME280;5912;51.034;6.984;2024-02-23T11:12:30;56592.72;;;-142.13;42.45
11712;BME280;5912;51.034;6.984;2024-02-23T11:14:57;56540.63;;;-142.13;43.59
11712;BME280;5912;51.034;6.984;2024-02-23T11:17:27;56566.66;;;-142.13;43.15
11712;BME280;5912;51.034;6.984;2024-02-23T11:19:55;56564.66;;;-142.13;43.65
11712;BME280;5912;51.034;6.984;2024-02-23T11:22:31;56584.69;;;-142.13;43.04
11712;BME280;5912;51.034;6.984;2024-02-23T11:25:16;56594.72;;;-142.13;43.76
11712;BME280;5912;51.034;6.984;2024-02-23T11:27:43;56592.72;;;-142.13;43.49
11712;BME280;5912;51.034;6.984;2024-02-23T11:30:09;56576.69;;;-142.13;44.03
11712;BME280;5912;51.034;6.984;2024-02-23T11:32:40;56552.66;;;-142.13;43.50
11712;BME280;5912;51.034;6.984;2024-02-23T11:35:07;56544.63;;;-142.13;43.74
11712;BME280;5912;51.034;6.984;2024-02-23T11:37:54;56548.63;;;-142.13;43.67
11712;BME280;5912;51.034;6.984;2024-02-23T11:40:30;56582.69;;;-142.13;43.24
11712;BME280;5912;51.034;6.984;2024-02-23T11:42:57;56546.63;;;-142.13;43.19
11712;BME280;5912;51.034;6.984;2024-02-23T11:45:28;56540.63;;;-142.13;42.06
11712;BME280;5912;51.034;6.984;2024-02-23T11:47:54;56558.66;;;-142.13;41.39
11712;BME280;5912;51.034;6.984;2024-02-23T11:50:20;56512.59;;;-142.13;40.34
11712;BME280;5912;51.034;6.984;2024-02-23T11:52:46;56538.63;;;-142.13;40.44
11712;BME280;5912;51.034;6.984;2024-02-23T11:55:12;56546.63;;;-142.13;41.00
11712;BME280;5912;51.034;6.984;2024-02-23T11:57:39;56562.66;;;-142.13;40.79
11712;BME280;5912;51.034;6.984;2024-02-23T12:00:05;56528.59;;;-142.13;40.67
11712;BME280;5912;51.034;6.984;2024-02-23T12:02:35;56526.59;;;-142.13;40.98
11712;BME280;5912;51.034;6.984;2024-02-23T12:05:01;56554.66;;;-142.13;40.71
11712;BME280;5912;51.034;6.984;2024-02-23T12:07:29;56508.56;;;-142.13;40.59
11712;BME280;5912;51.034;6.984;2024-02-23T12:09:56;56530.59;;;-142.13;40.97
11712;BME280;5912;51.034;6.984;2024-02-23T12:12:22;56556.66;;;-142.13;40.70
11712;BME280;5912;51.034;6.984;2024-02-23T12:14:48;56524.59;;;-142.13;40.67
11712;BME280;5912;51.034;6.984;2024-02-23T12:17:14;56564.66;;;-142.13;40.97
11712;BME280;5912;51.034;6.984;2024-02-23T12:19:40;56532.63;;;-142.13;41.17
11712;BME280;5912;51.034;6.984;2024-02-23T12:22:06;56538.63;;;-142.13;41.46
11712;BME280;5912;51.034;6.984;2024-02-23T12:24:31;56534.63;;;-142.13;41.03
11712;BME280;5912;51.034;6.984;2024-02-23T12:26:57;56556.66;;;-142.13;41.13
11712;BME280;5912;51.034;6.984;2024-02-23T12:29:23;56536.63;;;-142.13;41.35
11712;BME280;5912;51.034;6.984;2024-02-23T12:31:49;56554.66;;;-142.13;41.75
11712;BME280;5912;51.034;6.984;2024-02-23T12:34:14;56538.63;;;-142.13;41.58
11712;BME280;5912;51.034;6.984;2024-02-23T12:36:40;56560.66;;;-142.13;41.50
11712;BME280;5912;51.034;6.984;2024-02-23T12:39:06;56540.63;;;-142.13;41.39
11712;BME280;5912;51.034;6.984;2024-02-23T12:41:32;56538.63;;;-142.13;41.74
11712;BME280;5912;51.034;6.984;2024-02-23T12:43:58;56600.72;;;-142.13;41.67
11712;BME280;5912;51.034;6.984;2024-02-23T12:46:23;56570.69;;;-142.13;42.47
11712;BME280;5912;51.034;6.984;2024-02-23T12:48:49;56564.66;;;-142.13;41.20
11712;BME280;5912;51.034;6.984;2024-02-23T12:51:15;56584.69;;;-142.13;42.45
11712;BME280;5912;51.034;6.984;2024-02-23T12:53:42;56558.66;;;-142.13;42.04
11712;BME280;5912;51.034;6.984;2024-02-23T12:56:10;56534.63;;;-142.13;40.68
11712;BME280;5912;51.034;6.984;2024-02-23T12:58:40;56514.59;;;-142.13;40.76